sensor_id;sensor_type;location;lat;lon;timestamp;pressure;altitude;pressure_sealevel;temperature
20730;BMP280;10526;50.850;12.928;2023-03-01T00:03:59;99104.13;;;-5.23
20730;BMP280;10526;50.850;12.928;2023-03-01T00:08:21;99106.16;;;-5.30
20730;BMP280;10526;50.850;12.928;2023-03-01T00:12:43;99113.94;;;-5.30
20730;BMP280;10526;50.850;12.928;2023-03-01T00:17:05;99106.66;;;-5.38
20730;BMP280;10526;50.850;12.928;2023-03-01T00:21:28;99114.41;;;-5.43
20730;BMP280;10526;50.850;12.928;2023-03-01T00:25:50;99105.03;;;-5.50
20730;BMP280;10526;50.850;12.928;2023-03-01T00:30:13;99105.53;;;-5.53
20730;BMP280;10526;50.850;12.928;2023-03-01T00:34:35;99109.09;;;-5.64
20730;BMP280;10526;50.850;12.928;2023-03-01T00:38:57;99101.03;;;-5.73
20730;BMP280;10526;50.850;12.928;2023-03-01T00:43:20;99105.38;;;-5.78
20730;BMP280;10526;50.850;12.928;2023-03-01T00:47:43;99095.75;;;-5.83
20730;BMP280;10526;50.850;12.928;2023-03-01T00:52:05;99096.44;;;-5.93
20730;BMP280;10526;50.850;12.928;2023-03-01T00:56:28;99089.13;;;-6.01
20730;BMP280;10526;50.850;12.928;2023-03-01T01:00:51;99091.13;;;-6.13
20730;BMP280;10526;50.850;12.928;2023-03-01T01:05:14;99080.19;;;-6.20
20730;BMP280;10526;50.850;12.928;2023-03-01T01:09:36;99082.19;;;-6.27
20730;BMP280;10526;50.850;12.928;2023-03-01T01:13:59;99076.47;;;-6.29
20730;BMP280;10526;50.850;12.928;2023-03-01T01:18:23;99064.56;;;-6.30
20730;BMP280;10526;50.850;12.928;2023-03-01T01:22:45;99062.66;;;-6.35
20730;BMP280;10526;50.850;12.928;2023-03-01T01:27:07;99053.53;;;-6.48
20730;BMP280;10526;50.850;12.928;2023-03-01T01:31:29;99053.81;;;-6.44
20730;BMP280;10526;50.850;12.928;2023-03-01T01:35:52;99045.22;;;-6.50
20730;BMP280;10526;50.850;12.928;2023-03-01T01:40:14;99040.53;;;-6.53
20730;BMP280;10526;50.850;12.928;2023-03-01T01:44:36;99046.59;;;-6.42
20730;BMP280;10526;50.850;12.928;2023-03-01T01:49:07;99039.59;;;-6.36
20730;BMP280;10526;50.850;12.928;2023-03-01T01:53:32;99031.28;;;-6.38
20730;BMP280;10526;50.850;12.928;2023-03-01T01:57:59;99038.00;;;-6.43
20730;BMP280;10526;50.850;12.928;2023-03-01T02:02:23;99017.78;;;-6.46
20730;BMP280;10526;50.850;12.928;2023-03-01T02:07:14;99023.97;;;-6.47
20730;BMP280;10526;50.850;12.928;2023-03-01T02:11:32;99024.44;;;-6.55
20730;BMP280;10526;50.850;12.928;2023-03-01T02:15:55;99016.91;;;-6.61
20730;BMP280;10526;50.850;12.928;2023-03-01T02:20:53;99011.88;;;-6.68
20730;BMP280;10526;50.850;12.928;2023-03-01T02:25:50;99015.47;;;-6.74
20730;BMP280;10526;50.850;12.928;2023-03-01T02:30:14;99015.91;;;-6.82
20730;BMP280;10526;50.850;12.928;2023-03-01T02:34:39;99021.84;;;-6.82
20730;BMP280;10526;50.850;12.928;2023-03-01T02:39:04;99021.34;;;-6.84
20730;BMP280;10526;50.850;12.928;2023-03-01T02:43:31;99022.59;;;-6.87
20730;BMP280;10526;50.850;12.928;2023-03-01T02:47:57;99028.25;;;-6.90
20730;BMP280;10526;50.850;12.928;2023-03-01T02:56:58;99017.50;;;-7.03
20730;BMP280;10526;50.850;12.928;2023-03-01T03:01:23;99011.03;;;-7.01
20730;BMP280;10526;50.850;12.928;2023-03-01T03:05:59;99005.28;;;-7.08
20730;BMP280;10526;50.850;12.928;2023-03-01T03:10:31;99000.66;;;-7.06
20730;BMP280;10526;50.850;12.928;2023-03-01T03:14:53;98995.19;;;-7.10
20730;BMP280;10526;50.850;12.928;2023-03-01T03:19:19;98993.31;;;-7.14
20730;BMP280;10526;50.850;12.928;2023-03-01T03:23:41;98998.69;;;-7.21
20730;BMP280;10526;50.850;12.928;2023-03-01T03:28:06;98998.84;;;-7.27
20730;BMP280;10526;50.850;12.928;2023-03-01T03:32:31;98996.78;;;-7.30
20730;BMP280;10526;50.850;12.928;2023-03-01T03:36:56;98989.72;;;-7.35
20730;BMP280;10526;50.850;12.928;2023-03-01T03:41:21;98981.38;;;-7.42
20730;BMP280;10526;50.850;12.928;2023-03-01T03:45:47;98968.16;;;-7.46
20730;BMP280;10526;50.850;12.928;2023-03-01T03:50:12;98960.38;;;-7.46
20730;BMP280;10526;50.850;12.928;2023-03-01T03:54:34;98957.47;;;-7.49
20730;BMP280;10526;50.850;12.928;2023-03-01T03:58:56;98964.56;;;-7.40
20730;BMP280;10526;50.850;12.928;2023-03-01T04:03:19;98967.69;;;-7.38
20730;BMP280;10526;50.850;12.928;2023-03-01T04:07:42;98972.81;;;-7.43
20730;BMP280;10526;50.850;12.928;2023-03-01T04:12:04;98977.63;;;-7.51
20730;BMP280;10526;50.850;12.928;2023-03-01T04:16:27;98970.59;;;-7.56
20730;BMP280;10526;50.850;12.928;2023-03-01T04:20:50;98975.47;;;-7.60
20730;BMP280;10526;50.850;12.928;2023-03-01T04:25:14;98975.19;;;-7.14
20730;BMP280;10526;50.850;12.928;2023-03-01T04:29:36;98961.97;;;-7.18
20730;BMP280;10526;50.850;12.928;2023-03-01T04:33:58;98958.44;;;-7.34
20730;BMP280;10526;50.850;12.928;2023-03-01T04:38:20;98960.88;;;-7.49
20730;BMP280;10526;50.850;12.928;2023-03-01T04:42:43;98954.00;;;-7.60
20730;BMP280;10526;50.850;12.928;2023-03-01T04:47:05;98961.19;;;-7.62
20730;BMP280;10526;50.850;12.928;2023-03-01T04:51:27;98966.34;;;-7.62
20730;BMP280;10526;50.850;12.928;2023-03-01T04:55:50;98960.19;;;-7.61
20730;BMP280;10526;50.850;12.928;2023-03-01T05:00:15;98952.53;;;-7.51
20730;BMP280;10526;50.850;12.928;2023-03-01T05:04:43;98949.28;;;-7.63
20730;BMP280;10526;50.850;12.928;2023-03-01T05:09:05;98956.38;;;-7.75
20730;BMP280;10526;50.850;12.928;2023-03-01T05:13:28;98950.06;;;-7.85
20730;BMP280;10526;50.850;12.928;2023-03-01T05:17:52;98958.38;;;-7.83
20730;BMP280;10526;50.850;12.928;2023-03-01T05:22:14;98960.88;;;-7.88
20730;BMP280;10526;50.850;12.928;2023-03-01T05:26:36;98960.75;;;-7.98
20730;BMP280;10526;50.850;12.928;2023-03-01T05:31:02;98949.06;;;-8.01
20730;BMP280;10526;50.850;12.928;2023-03-01T05:35:24;98948.00;;;-8.05
20730;BMP280;10526;50.850;12.928;2023-03-01T05:39:46;98946.66;;;-8.07
20730;BMP280;10526;50.850;12.928;2023-03-01T05:44:11;98947.28;;;-8.00
20730;BMP280;10526;50.850;12.928;2023-03-01T05:48:34;98939.53;;;-8.00
20730;BMP280;10526;50.850;12.928;2023-03-01T05:53:01;98942.91;;;-8.00
20730;BMP280;10526;50.850;12.928;2023-03-01T05:57:23;98939.00;;;-8.02
20730;BMP280;10526;50.850;12.928;2023-03-01T06:01:46;98942.16;;;-7.95
20730;BMP280;10526;50.850;12.928;2023-03-01T06:06:08;98956.97;;;-7.90
20730;BMP280;10526;50.850;12.928;2023-03-01T06:10:30;98945.44;;;-7.83
20730;BMP280;10526;50.850;12.928;2023-03-01T06:14:52;98951.28;;;-7.70
20730;BMP280;10526;50.850;12.928;2023-03-01T06:19:15;98954.53;;;-7.58
20730;BMP280;10526;50.850;12.928;2023-03-01T06:23:37;98950.06;;;-6.92
20730;BMP280;10526;50.850;12.928;2023-03-01T06:27:59;98963.47;;;-4.59
20730;BMP280;10526;50.850;12.928;2023-03-01T06:32:21;98963.38;;;-2.45
20730;BMP280;10526;50.850;12.928;2023-03-01T06:36:44;98965.38;;;-0.39
20730;BMP280;10526;50.850;12.928;2023-03-01T06:41:06;98960.50;;;1.53
20730;BMP280;10526;50.850;12.928;2023-03-01T06:45:28;98967.91;;;3.07
20730;BMP280;10526;50.850;12.928;2023-03-01T06:49:50;98976.06;;;4.11
20730;BMP280;10526;50.850;12.928;2023-03-01T06:54:13;98972.84;;;5.42
20730;BMP280;10526;50.850;12.928;2023-03-01T06:58:35;98982.66;;;7.13
20730;BMP280;10526;50.850;12.928;2023-03-01T07:03:00;98983.25;;;8.54
20730;BMP280;10526;50.850;12.928;2023-03-01T07:07:24;98979.03;;;9.89
20730;BMP280;10526;50.850;12.928;2023-03-01T07:11:46;98984.50;;;11.50
20730;BMP280;10526;50.850;12.928;2023-03-01T07:16:08;98994.19;;;11.98
20730;BMP280;10526;50.850;12.928;2023-03-01T07:20:30;98995.41;;;12.40
20730;BMP280;10526;50.850;12.928;2023-03-01T07:24:52;98984.31;;;12.34
20730;BMP280;10526;50.850;12.928;2023-03-01T07:29:15;98992.19;;;13.37
20730;BMP280;10526;50.850;12.928;2023-03-01T07:33:37;98999.03;;;13.53
20730;BMP280;10526;50.850;12.928;2023-03-01T07:37:59;98994.44;;;14.16
20730;BMP280;10526;50.850;12.928;2023-03-01T07:42:21;98993.09;;;15.20
20730;BMP280;10526;50.850;12.928;2023-03-01T07:46:43;98992.59;;;17.00
20730;BMP280;10526;50.850;12.928;2023-03-01T07:51:07;98994.09;;;18.51
20730;BMP280;10526;50.850;12.928;2023-03-01T07:55:29;98990.63;;;19.47
20730;BMP280;10526;50.850;12.928;2023-03-01T07:59:51;98984.28;;;20.66
20730;BMP280;10526;50.850;12.928;2023-03-01T08:04:13;98983.44;;;21.40
20730;BMP280;10526;50.850;12.928;2023-03-01T08:08:36;98976.88;;;21.19
20730;BMP280;10526;50.850;12.928;2023-03-01T08:12:58;98974.22;;;21.78
20730;BMP280;10526;50.850;12.928;2023-03-01T08:17:21;98967.75;;;23.14
20730;BMP280;10526;50.850;12.928;2023-03-01T08:21:43;98961.19;;;23.54
20730;BMP280;10526;50.850;12.928;2023-03-01T08:26:15;98948.03;;;23.52
20730;BMP280;10526;50.850;12.928;2023-03-01T08:30:37;98959.81;;;21.41
20730;BMP280;10526;50.850;12.928;2023-03-01T08:34:59;98960.22;;;19.68
20730;BMP280;10526;50.850;12.928;2023-03-01T08:39:22;98941.41;;;16.17
20730;BMP280;10526;50.850;12.928;2023-03-01T08:43:44;98945.41;;;15.32
20730;BMP280;10526;50.850;12.928;2023-03-01T08:48:06;98937.88;;;15.50
20730;BMP280;10526;50.850;12.928;2023-03-01T08:52:28;98940.03;;;16.09
20730;BMP280;10526;50.850;12.928;2023-03-01T08:56:51;98930.88;;;15.79
20730;BMP280;10526;50.850;12.928;2023-03-01T09:01:17;98912.56;;;16.84
20730;BMP280;10526;50.850;12.928;2023-03-01T09:05:39;98923.19;;;17.76
20730;BMP280;10526;50.850;12.928;2023-03-01T09:10:01;98922.56;;;17.36
20730;BMP280;10526;50.850;12.928;2023-03-01T09:14:23;98922.56;;;17.36
20730;BMP280;10526;50.850;12.928;2023-03-01T09:18:52;98906.66;;;16.89
20730;BMP280;10526;50.850;12.928;2023-03-01T09:23:15;98905.50;;;17.59
20730;BMP280;10526;50.850;12.928;2023-03-01T09:27:37;98894.41;;;16.68
20730;BMP280;10526;50.850;12.928;2023-03-01T09:31:59;98896.34;;;18.18
20730;BMP280;10526;50.850;12.928;2023-03-01T09:36:24;98897.97;;;17.18
20730;BMP280;10526;50.850;12.928;2023-03-01T09:40:47;98894.44;;;16.45
20730;BMP280;10526;50.850;12.928;2023-03-01T09:45:41;98894.56;;;16.18
20730;BMP280;10526;50.850;12.928;2023-03-01T09:50:16;98902.53;;;17.21
20730;BMP280;10526;50.850;12.928;2023-03-01T09:54:39;98905.59;;;18.46
20730;BMP280;10526;50.850;12.928;2023-03-01T09:59:45;98903.16;;;18.06
20730;BMP280;10526;50.850;12.928;2023-03-01T10:09:22;98903.28;;;16.02
20730;BMP280;10526;50.850;12.928;2023-03-01T10:13:58;98918.88;;;15.88
20730;BMP280;10526;50.850;12.928;2023-03-01T10:18:27;98904.22;;;15.11
20730;BMP280;10526;50.850;12.928;2023-03-01T10:22:51;98898.94;;;16.32
20730;BMP280;10526;50.850;12.928;2023-03-01T10:27:23;98889.44;;;16.47
20730;BMP280;10526;50.850;12.928;2023-03-01T10:31:52;98878.91;;;17.45
20730;BMP280;10526;50.850;12.928;2023-03-01T10:36:14;98880.88;;;17.60
20730;BMP280;10526;50.850;12.928;2023-03-01T10:45:36;98870.91;;;17.57
20730;BMP280;10526;50.850;12.928;2023-03-01T10:50:17;98872.06;;;17.08
20730;BMP280;10526;50.850;12.928;2023-03-01T10:54:40;98855.84;;;16.55
20730;BMP280;10526;50.850;12.928;2023-03-01T10:59:05;98863.28;;;16.28
20730;BMP280;10526;50.850;12.928;2023-03-01T11:03:33;98859.16;;;16.23
20730;BMP280;10526;50.850;12.928;2023-03-01T11:07:57;98854.19;;;16.61
20730;BMP280;10526;50.850;12.928;2023-03-01T11:12:20;98860.72;;;16.60
20730;BMP280;10526;50.850;12.928;2023-03-01T11:16:45;98855.91;;;14.84
20730;BMP280;10526;50.850;12.928;2023-03-01T11:21:10;98856.97;;;14.60
20730;BMP280;10526;50.850;12.928;2023-03-01T11:25:53;98841.53;;;13.92
20730;BMP280;10526;50.850;12.928;2023-03-01T11:35:23;98840.03;;;12.59
20730;BMP280;10526;50.850;12.928;2023-03-01T11:40:30;98843.38;;;12.74
20730;BMP280;10526;50.850;12.928;2023-03-01T11:45:08;98852.34;;;13.23
20730;BMP280;10526;50.850;12.928;2023-03-01T11:54:34;98847.72;;;11.64
20730;BMP280;10526;50.850;12.928;2023-03-01T12:09:04;98827.63;;;10.73
20730;BMP280;10526;50.850;12.928;2023-03-01T12:13:56;98827.53;;;10.03
20730;BMP280;10526;50.850;12.928;2023-03-01T12:33:08;98789.97;;;5.92
20730;BMP280;10526;50.850;12.928;2023-03-01T12:37:49;98786.50;;;4.92
20730;BMP280;10526;50.850;12.928;2023-03-01T12:47:38;98775.47;;;4.04
20730;BMP280;10526;50.850;12.928;2023-03-01T12:52:16;98785.94;;;3.80
20730;BMP280;10526;50.850;12.928;2023-03-01T12:56:42;98776.53;;;3.58
20730;BMP280;10526;50.850;12.928;2023-03-01T13:01:51;98768.56;;;3.66
20730;BMP280;10526;50.850;12.928;2023-03-01T13:11:22;98773.69;;;3.63
20730;BMP280;10526;50.850;12.928;2023-03-01T13:15:45;98766.94;;;3.53
20730;BMP280;10526;50.850;12.928;2023-03-01T13:20:17;98759.03;;;3.53
20730;BMP280;10526;50.850;12.928;2023-03-01T13:24:42;98754.97;;;3.43
20730;BMP280;10526;50.850;12.928;2023-03-01T13:29:04;98763.66;;;3.56
20730;BMP280;10526;50.850;12.928;2023-03-01T13:33:39;98762.38;;;3.50
20730;BMP280;10526;50.850;12.928;2023-03-01T13:43:32;98761.38;;;3.55
20730;BMP280;10526;50.850;12.928;2023-03-01T13:48:08;98758.22;;;3.61
20730;BMP280;10526;50.850;12.928;2023-03-01T13:52:43;98763.66;;;3.56
20730;BMP280;10526;50.850;12.928;2023-03-01T13:57:05;98756.41;;;3.53
20730;BMP280;10526;50.850;12.928;2023-03-01T14:01:35;98762.78;;;3.52
20730;BMP280;10526;50.850;12.928;2023-03-01T14:20:38;98745.75;;;3.70
20730;BMP280;10526;50.850;12.928;2023-03-01T14:29:43;98735.41;;;3.65
20730;BMP280;10526;50.850;12.928;2023-03-01T14:34:06;98730.59;;;3.67
20730;BMP280;10526;50.850;12.928;2023-03-01T14:38:44;98721.91;;;3.67
20730;BMP280;10526;50.850;12.928;2023-03-01T14:43:12;98729.19;;;3.82
20730;BMP280;10526;50.850;12.928;2023-03-01T14:47:40;98716.00;;;3.82
20730;BMP280;10526;50.850;12.928;2023-03-01T14:52:17;98717.41;;;3.80
20730;BMP280;10526;50.850;12.928;2023-03-01T14:56:46;98704.25;;;3.80
20730;BMP280;10526;50.850;12.928;2023-03-01T15:01:15;98701.19;;;3.78
20730;BMP280;10526;50.850;12.928;2023-03-01T15:05:40;98699.09;;;3.71
20730;BMP280;10526;50.850;12.928;2023-03-01T15:10:05;98694.81;;;3.66
20730;BMP280;10526;50.850;12.928;2023-03-01T15:14:42;98693.28;;;3.65
20730;BMP280;10526;50.850;12.928;2023-03-01T15:19:18;98690.50;;;3.62
20730;BMP280;10526;50.850;12.928;2023-03-01T15:23:41;98678.09;;;3.50
20730;BMP280;10526;50.850;12.928;2023-03-01T15:28:03;98676.28;;;3.42
20730;BMP280;10526;50.850;12.928;2023-03-01T15:32:32;98678.38;;;3.36
20730;BMP280;10526;50.850;12.928;2023-03-01T15:36:57;98684.13;;;3.30
20730;BMP280;10526;50.850;12.928;2023-03-01T15:41:45;98675.25;;;3.22
20730;BMP280;10526;50.850;12.928;2023-03-01T15:46:22;98678.06;;;3.17
20730;BMP280;10526;50.850;12.928;2023-03-01T15:50:56;98674.88;;;3.11
20730;BMP280;10526;50.850;12.928;2023-03-01T15:59:45;98680.50;;;3.01
20730;BMP280;10526;50.850;12.928;2023-03-01T16:04:09;98673.00;;;2.91
20730;BMP280;10526;50.850;12.928;2023-03-01T16:08:33;98671.22;;;2.83
20730;BMP280;10526;50.850;12.928;2023-03-01T16:12:55;98675.28;;;2.71
20730;BMP280;10526;50.850;12.928;2023-03-01T16:17:17;98684.66;;;2.60
20730;BMP280;10526;50.850;12.928;2023-03-01T16:21:40;98696.00;;;2.52
20730;BMP280;10526;50.850;12.928;2023-03-01T16:26:02;98690.97;;;2.38
20730;BMP280;10526;50.850;12.928;2023-03-01T16:30:24;98689.47;;;2.29
20730;BMP280;10526;50.850;12.928;2023-03-01T16:34:46;98678.53;;;2.18
20730;BMP280;10526;50.850;12.928;2023-03-01T16:39:10;98682.44;;;2.03
20730;BMP280;10526;50.850;12.928;2023-03-01T16:43:32;98694.88;;;1.85
20730;BMP280;10526;50.850;12.928;2023-03-01T16:47:54;98695.53;;;1.73
20730;BMP280;10526;50.850;12.928;2023-03-01T16:52:16;98694.91;;;1.59
20730;BMP280;10526;50.850;12.928;2023-03-01T16:56:39;98709.59;;;1.43
20730;BMP280;10526;50.850;12.928;2023-03-01T17:05:28;98708.69;;;1.21
20730;BMP280;10526;50.850;12.928;2023-03-01T17:09:50;98718.06;;;1.05
20730;BMP280;10526;50.850;12.928;2023-03-01T17:14:12;98717.41;;;0.91
20730;BMP280;10526;50.850;12.928;2023-03-01T17:18:34;98712.16;;;0.82
20730;BMP280;10526;50.850;12.928;2023-03-01T17:22:56;98711.50;;;0.77
20730;BMP280;10526;50.850;12.928;2023-03-01T17:27:19;98709.97;;;0.67
20730;BMP280;10526;50.850;12.928;2023-03-01T17:31:41;98706.84;;;0.56
20730;BMP280;10526;50.850;12.928;2023-03-01T17:36:04;98703.28;;;0.52
20730;BMP280;10526;50.850;12.928;2023-03-01T17:40:26;98713.16;;;0.55
20730;BMP280;10526;50.850;12.928;2023-03-01T17:44:49;98712.41;;;0.55
20730;BMP280;10526;50.850;12.928;2023-03-01T17:49:11;98709.13;;;0.49
20730;BMP280;10526;50.850;12.928;2023-03-01T17:53:35;98710.47;;;0.38
20730;BMP280;10526;50.850;12.928;2023-03-01T17:57:57;98709.22;;;0.27
20730;BMP280;10526;50.850;12.928;2023-03-01T18:02:20;98709.47;;;0.16
20730;BMP280;10526;50.850;12.928;2023-03-01T18:06:42;98716.00;;;-0.04
20730;BMP280;10526;50.850;12.928;2023-03-01T18:11:04;98718.19;;;-0.19
20730;BMP280;10526;50.850;12.928;2023-03-01T18:15:26;98718.03;;;-0.23
20730;BMP280;10526;50.850;12.928;2023-03-01T18:19:50;98714.03;;;-0.20
20730;BMP280;10526;50.850;12.928;2023-03-01T18:24:12;98708.69;;;-0.15
20730;BMP280;10526;50.850;12.928;2023-03-01T18:28:35;98710.75;;;-0.04
20730;BMP280;10526;50.850;12.928;2023-03-01T18:32:57;98709.03;;;-0.08
20730;BMP280;10526;50.850;12.928;2023-03-01T18:37:19;98697.09;;;-0.23
20730;BMP280;10526;50.850;12.928;2023-03-01T18:41:41;98690.34;;;-0.38
20730;BMP280;10526;50.850;12.928;2023-03-01T18:46:04;98681.13;;;-0.35
20730;BMP280;10526;50.850;12.928;2023-03-01T18:50:26;98681.03;;;-0.30
20730;BMP280;10526;50.850;12.928;2023-03-01T18:54:48;98685.88;;;-0.37
20730;BMP280;10526;50.850;12.928;2023-03-01T18:59:10;98682.72;;;-0.48
20730;BMP280;10526;50.850;12.928;2023-03-01T19:03:35;98688.94;;;-0.58
20730;BMP280;10526;50.850;12.928;2023-03-01T19:07:58;98690.28;;;-0.69
20730;BMP280;10526;50.850;12.928;2023-03-01T19:12:21;98684.88;;;-0.86
20730;BMP280;10526;50.850;12.928;2023-03-01T19:16:43;98687.06;;;-1.02
20730;BMP280;10526;50.850;12.928;2023-03-01T19:21:06;98693.25;;;-1.12
20730;BMP280;10526;50.850;12.928;2023-03-01T19:25:29;98686.88;;;-1.19
20730;BMP280;10526;50.850;12.928;2023-03-01T19:29:53;98687.56;;;-1.28
20730;BMP280;10526;50.850;12.928;2023-03-01T19:34:15;98686.19;;;-1.39
20730;BMP280;10526;50.850;12.928;2023-03-01T19:38:38;98679.44;;;-1.54
20730;BMP280;10526;50.850;12.928;2023-03-01T19:43:01;98676.25;;;-1.64
20730;BMP280;10526;50.850;12.928;2023-03-01T19:47:23;98676.31;;;-1.70
20730;BMP280;10526;50.850;12.928;2023-03-01T19:51:45;98671.97;;;-1.74
20730;BMP280;10526;50.850;12.928;2023-03-01T19:56:08;98667.03;;;-1.76
20730;BMP280;10526;50.850;12.928;2023-03-01T20:00:32;98682.97;;;-1.77
20730;BMP280;10526;50.850;12.928;2023-03-01T20:04:55;98683.41;;;-1.89
20730;BMP280;10526;50.850;12.928;2023-03-01T20:09:17;98686.69;;;-1.97
20730;BMP280;10526;50.850;12.928;2023-03-01T20:13:43;98686.88;;;-2.07
20730;BMP280;10526;50.850;12.928;2023-03-01T20:18:05;98681.53;;;-2.16
20730;BMP280;10526;50.850;12.928;2023-03-01T20:22:27;98685.00;;;-2.21
20730;BMP280;10526;50.850;12.928;2023-03-01T20:26:49;98688.94;;;-2.23
20730;BMP280;10526;50.850;12.928;2023-03-01T20:31:14;98685.41;;;-2.32
20730;BMP280;10526;50.850;12.928;2023-03-01T20:35:41;98682.97;;;-2.43
20730;BMP280;10526;50.850;12.928;2023-03-01T20:40:04;98684.88;;;-2.48
20730;BMP280;10526;50.850;12.928;2023-03-01T20:44:26;98675.59;;;-2.54
20730;BMP280;10526;50.850;12.928;2023-03-01T20:48:49;98680.31;;;-2.56
20730;BMP280;10526;50.850;12.928;2023-03-01T20:53:14;98680.88;;;-2.59
20730;BMP280;10526;50.850;12.928;2023-03-01T20:57:36;98668.94;;;-2.66
20730;BMP280;10526;50.850;12.928;2023-03-01T21:01:58;98667.41;;;-2.67
20730;BMP280;10526;50.850;12.928;2023-03-01T21:06:21;98664.88;;;-2.72
20730;BMP280;10526;50.850;12.928;2023-03-01T21:10:48;98668.59;;;-2.78
20730;BMP280;10526;50.850;12.928;2023-03-01T21:15:10;98673.59;;;-2.81
20730;BMP280;10526;50.850;12.928;2023-03-01T21:19:48;98669.03;;;-2.90
20730;BMP280;10526;50.850;12.928;2023-03-01T21:24:11;98671.94;;;-2.91
20730;BMP280;10526;50.850;12.928;2023-03-01T21:28:35;98667.56;;;-2.96
20730;BMP280;10526;50.850;12.928;2023-03-01T21:32:57;98670.47;;;-3.02
20730;BMP280;10526;50.850;12.928;2023-03-01T21:37:19;98663.22;;;-3.05
20730;BMP280;10526;50.850;12.928;2023-03-01T21:41:49;98657.78;;;-3.09
20730;BMP280;10526;50.850;12.928;2023-03-01T21:46:18;98652.88;;;-3.10
20730;BMP280;10526;50.850;12.928;2023-03-01T21:50:40;98654.97;;;-3.13
20730;BMP280;10526;50.850;12.928;2023-03-01T21:55:03;98646.16;;;-3.17
20730;BMP280;10526;50.850;12.928;2023-03-01T21:59:26;98633.69;;;-3.20
20730;BMP280;10526;50.850;12.928;2023-03-01T22:03:49;98639.22;;;-3.21
20730;BMP280;10526;50.850;12.928;2023-03-01T22:08:11;98634.75;;;-3.21
20730;BMP280;10526;50.850;12.928;2023-03-01T22:12:33;98627.78;;;-3.25
20730;BMP280;10526;50.850;12.928;2023-03-01T22:16:56;98634.31;;;-3.28
20730;BMP280;10526;50.850;12.928;2023-03-01T22:21:18;98624.03;;;-3.38
20730;BMP280;10526;50.850;12.928;2023-03-01T22:25:41;98626.47;;;-3.47
20730;BMP280;10526;50.850;12.928;2023-03-01T22:30:09;98617.88;;;-3.47
20730;BMP280;10526;50.850;12.928;2023-03-01T22:34:32;98614.44;;;-3.43
20730;BMP280;10526;50.850;12.928;2023-03-01T22:38:56;98623.19;;;-3.33
20730;BMP280;10526;50.850;12.928;2023-03-01T22:43:22;98611.03;;;-3.38
20730;BMP280;10526;50.850;12.928;2023-03-01T22:47:44;98600.94;;;-3.45
20730;BMP280;10526;50.850;12.928;2023-03-01T22:52:06;98593.38;;;-3.46
20730;BMP280;10526;50.850;12.928;2023-03-01T22:56:32;98595.41;;;-3.38
20730;BMP280;10526;50.850;12.928;2023-03-01T23:00:55;98589.91;;;-3.37
20730;BMP280;10526;50.850;12.928;2023-03-01T23:05:17;98591.94;;;-3.33
20730;BMP280;10526;50.850;12.928;2023-03-01T23:09:39;98596.84;;;-3.32
20730;BMP280;10526;50.850;12.928;2023-03-01T23:14:01;98601.22;;;-3.27
20730;BMP280;10526;50.850;12.928;2023-03-01T23:18:24;98601.41;;;-3.19
20730;BMP280;10526;50.850;12.928;2023-03-01T23:22:46;98598.44;;;-3.12
20730;BMP280;10526;50.850;12.928;2023-03-01T23:27:08;98601.81;;;-3.11
20730;BMP280;10526;50.850;12.928;2023-03-01T23:31:30;98595.13;;;-3.18
20730;BMP280;10526;50.850;12.928;2023-03-01T23:35:53;98597.31;;;-3.25
20730;BMP280;10526;50.850;12.928;2023-03-01T23:40:15;98593.69;;;-3.29
20730;BMP280;10526;50.850;12.928;2023-03-01T23:44:37;98594.75;;;-3.30
20730;BMP280;10526;50.850;12.928;2023-03-01T23:49:02;98592.28;;;-3.40
20730;BMP280;10526;50.850;12.928;2023-03-01T23:53:24;98588.19;;;-3.46
20730;BMP280;10526;50.850;12.928;2023-03-01T23:57:47;98583.31;;;-3.53
